Glennallen, AK (99588)

12:20 PM AKST on December 09, 2016 (GMT -0900)
Glennallen School | | Change Station

Elev 1500 ft 62.11 °N, 145.53 °W | Updated 16 seconds ago

Clear
Clear
-14.6 °F
Feels Like -15 °F
N
0.0
Wind Variable Wind from WSW
Gusts 0.0 mph

Today
High -- | Low -- °F
--% Chance of Precip.
Yesterday
High -- | Low -- °F
Precip. -- in
Pressure 30.48 in
Visibility 7.0 miles
Clouds Clear
Windchill -15 °F
Dew Point -20 °F
Humidity 77%
Rainfall 0.00 in
Snow Depth Not available.
9:54 AM 3:15 PM
Waxing Gibbous, 77% visible
METAR PAGK 092053Z AUTO 35003KT 7SM CLR M26/M29 A3026 RMK AO2 SLP322 T12611289 51001 TSNO
Pressure 30.48 in
Visibility 7.0 miles
Clouds Clear
Windchill -15 °F
Dew Point -20 °F
Humidity 77%
Rainfall 0.00 in
Snow Depth Not available.
9:54 AM 3:15 PM
Waxing Gibbous, 77% visible
METAR PAGK 092053Z AUTO 35003KT 7SM CLR M26/M29 A3026 RMK AO2 SLP322 T12611289 51001 TSNO

10-Day Weather Forecast

Almanac

Astronomy

Dec. 09, 2016 Rise Set
Actual Time
Civil Twilight
Nautical Twilight
Astronomical Twilight
Moon
Length of Visible Light
Length of Day
Tomorrow will be .
, % of the Moon is Illuminated

Today's Extremes

State Highs State Lows

Community

WunderPhotos

Upload Photos

1,956,517 photos uploaded!

WunderBlog® & News

Nearby

Air Quality

  Air Quality AQ Index Pollutant
Not available.

Snow Depth

Station Depth Elevation

Earthquake Activity

City Distance Mag. Time & Date
Minimum magnitude displayed is 2.5.

Coastal Water Temperatures

Place Temperature

Stations

Nearby Weather Stations

Station Location Temp. Windchill Dew Point Humidity Wind Precip. Elev Updated Type
                   

Watches & Warnings

There are currently no watches in effect.